Time;durP1;ratioP1;P1;durP2;ratioP2;P2;SDS_P1;SDS_P2;PMS_P1;PMS_P2;Temp;Humidity;BMP_temperature;BMP_pressure;BME280_temperature;BME280_humidity;BME280_pressure;Samples;Min_cycle;Max_cycle;Signal;HPM_P1;HPM_P2
2020/12/11 00:00:06;;;;;;;15.48;11.15;;;1.60;86.80;;;;;;5083962;28;20027;-86
2020/12/11 00:02:34;;;;;;;16.70;11.55;;;1.60;86.80;;;;;;5093041;28;20069;-86
2020/12/11 00:05:01;;;;;;;19.42;13.30;;;1.60;86.80;;;;;;5088975;28;20051;-87
2020/12/11 00:07:27;;;;;;;20.70;14.20;;;1.50;86.50;;;;;;5108923;28;20106;-86
2020/12/11 00:09:52;;;;;;;16.75;11.48;;;1.50;86.70;;;;;;5104959;28;20063;-87
2020/12/11 00:12:18;;;;;;;15.10;10.23;;;1.50;86.80;;;;;;5104262;28;20020;-87
2020/12/11 00:14:44;;;;;;;17.38;11.85;;;1.50;86.80;;;;;;5096187;28;20107;-86
2020/12/11 00:17:09;;;;;;;15.98;10.63;;;1.50;86.80;;;;;;5109800;28;20489;-87
2020/12/11 00:19:35;;;;;;;16.20;11.45;;;1.50;86.80;;;;;;5136156;27;20027;-85
2020/12/11 00:22:00;;;;;;;16.02;11.23;;;1.50;86.80;;;;;;5125597;28;20040;-86
2020/12/11 00:24:26;;;;;;;17.52;10.95;;;1.50;86.90;;;;;;5114920;28;20109;-86
2020/12/11 00:26:51;;;;;;;16.50;12.27;;;1.50;86.90;;;;;;5115531;28;20042;-86
2020/12/11 00:29:17;;;;;;;18.60;12.73;;;1.50;86.80;;;;;;5074392;28;20109;-87
2020/12/11 00:31:43;;;;;;;15.65;11.13;;;1.40;87.40;;;;;;5093569;28;20012;-87
2020/12/11 00:34:08;;;;;;;13.27;9.40;;;1.50;86.90;;;;;;5102969;28;20057;-87
2020/12/11 00:36:34;;;;;;;16.98;11.07;;;1.50;86.90;;;;;;5117349;28;20062;-87
2020/12/11 00:39:00;;;;;;;15.23;11.07;;;1.50;86.80;;;;;;5128171;28;20035;-87
2020/12/11 00:41:25;;;;;;;18.80;12.57;;;1.60;86.70;;;;;;5133977;27;20008;-86
2020/12/11 00:43:51;;;;;;;15.70;10.35;;;1.60;86.60;;;;;;5120159;28;20027;-86
2020/12/11 00:46:23;;;;;;;19.73;13.13;;;1.60;86.60;;;;;;5115466;28;20032;-87
2020/12/11 00:48:49;;;;;;;20.55;13.52;;;1.50;86.50;;;;;;5088665;28;20119;-87
2020/12/11 00:51:19;;;;;;;17.20;12.18;;;1.60;86.50;;;;;;5111099;28;20051;-87
2020/12/11 00:53:44;;;;;;;16.67;11.07;;;1.60;86.50;;;;;;5099946;28;20020;-86
2020/12/11 00:56:10;;;;;;;18.67;13.02;;;1.60;86.40;;;;;;5107021;28;20576;-86
2020/12/11 00:58:35;;;;;;;17.65;11.90;;;1.60;86.30;;;;;;5099572;28;20063;-86
2020/12/11 01:01:01;;;;;;;20.38;13.95;;;1.60;86.30;;;;;;5100300;28;20020;-87
2020/12/11 01:03:26;;;;;;;14.32;9.98;;;1.60;86.30;;;;;;5102557;28;20053;-87
2020/12/11 01:05:52;;;;;;;17.25;12.45;;;1.60;86.30;;;;;;5095308;28;20024;-86
2020/12/11 01:08:18;;;;;;;14.35;10.50;;;1.60;86.20;;;;;;5094667;28;20105;-86
2020/12/11 01:10:43;;;;;;;17.95;12.55;;;1.60;86.20;;;;;;5101503;28;20107;-87
2020/12/11 01:13:09;;;;;;;17.77;12.30;;;1.60;86.20;;;;;;5106119;28;20020;-87
2020/12/11 01:15:34;;;;;;;16.23;11.70;;;1.60;86.10;;;;;;5094916;28;20081;-87
2020/12/11 01:18:00;;;;;;;17.70;12.57;;;1.70;86.10;;;;;;5109402;28;20028;-87
2020/12/11 01:20:25;;;;;;;20.30;13.95;;;1.60;85.90;;;;;;5109718;28;20419;-87
2020/12/11 01:22:51;;;;;;;18.60;12.68;;;1.60;85.80;;;;;;5103062;28;20024;-86
2020/12/11 01:25:18;;;;;;;16.85;11.50;;;1.60;85.90;;;;;;5094498;28;20389;-87
2020/12/11 01:27:43;;;;;;;16.88;11.25;;;1.60;85.90;;;;;;5084634;28;20020;-86
2020/12/11 01:30:09;;;;;;;14.57;9.20;;;1.60;86.00;;;;;;5075861;28;20489;-86
2020/12/11 01:32:34;;;;;;;13.88;9.35;;;1.70;86.00;;;;;;5100157;28;20427;-86
2020/12/11 01:35:00;;;;;;;11.90;8.15;;;1.70;85.90;;;;;;5113596;28;20028;-87
2020/12/11 01:37:26;;;;;;;21.08;14.68;;;1.80;86.00;;;;;;5112150;28;20404;-87
2020/12/11 01:39:53;;;;;;;18.58;11.55;;;1.70;85.70;;;;;;5084867;28;20076;-87
2020/12/11 01:42:18;;;;;;;18.23;12.57;;;1.70;85.80;;;;;;5085509;28;20023;-86
2020/12/11 01:44:51;;;;;;;18.80;12.68;;;1.70;85.70;;;;;;5078330;28;20032;-86
2020/12/11 01:47:18;;;;;;;19.77;13.52;;;1.70;85.60;;;;;;5101566;28;20023;-87
2020/12/11 01:49:45;;;;;;;16.20;10.55;;;1.60;85.60;;;;;;5078867;28;20036;-87
2020/12/11 01:52:13;;;;;;;17.35;11.68;;;1.60;85.80;;;;;;5083472;28;20015;-87
2020/12/11 01:54:38;;;;;;;14.55;10.50;;;1.60;85.80;;;;;;5103696;28;20032;-87
2020/12/11 01:57:05;;;;;;;14.30;10.00;;;1.70;85.90;;;;;;5100971;28;20073;-87
2020/12/11 01:59:48;;;;;;;16.80;11.55;;;1.70;85.80;;;;;;5080097;28;20024;-87
2020/12/11 02:02:14;;;;;;;15.93;10.23;;;1.70;85.80;;;;;;5101245;28;20023;-88
2020/12/11 02:04:39;;;;;;;18.83;13.07;;;1.60;85.70;;;;;;5097806;28;20296;-88
2020/12/11 02:07:05;;;;;;;18.63;12.02;;;1.60;85.70;;;;;;5112931;28;20174;-88
2020/12/11 02:09:32;;;;;;;16.73;11.38;;;1.60;85.70;;;;;;5086547;28;20089;-88
2020/12/11 02:11:58;;;;;;;17.35;12.23;;;1.60;85.70;;;;;;5089864;28;20020;-88
2020/12/11 02:14:24;;;;;;;16.10;10.93;;;1.60;85.80;;;;;;5105489;28;20023;-87
2020/12/11 02:16:58;;;;;;;17.33;11.10;;;1.60;85.80;;;;;;5108370;28;20466;-87
2020/12/11 02:19:29;;;;;;;20.35;13.98;;;1.60;85.80;;;;;;5102406;28;20039;-87
2020/12/11 02:22:05;;;;;;;18.63;12.07;;;1.60;85.70;;;;;;5099944;28;20024;-87
2020/12/11 02:24:32;;;;;;;17.58;11.13;;;1.60;85.70;;;;;;5085391;28;20019;-88
2020/12/11 02:26:58;;;;;;;22.75;14.43;;;1.60;85.80;;;;;;5102577;28;20027;-88
2020/12/11 02:29:25;;;;;;;17.75;11.20;;;1.60;85.70;;;;;;5104194;28;20036;-87
2020/12/11 02:31:51;;;;;;;17.27;12.13;;;1.60;85.80;;;;;;5109051;28;20538;-88
2020/12/11 02:34:17;;;;;;;19.05;13.23;;;1.60;85.90;;;;;;5099890;28;20125;-88
2020/12/11 02:36:44;;;;;;;17.38;11.98;;;1.60;85.90;;;;;;5095247;28;20024;-87
2020/12/11 02:39:09;;;;;;;16.48;11.35;;;1.60;85.90;;;;;;5102273;28;20027;-88
2020/12/11 02:41:35;;;;;;;18.52;12.38;;;1.60;85.90;;;;;;5112448;28;20032;-88
2020/12/11 02:44:01;;;;;;;20.70;13.23;;;1.60;85.90;;;;;;5101577;28;20115;-88
2020/12/11 02:46:27;;;;;;;15.60;11.00;;;1.60;85.90;;;;;;5075811;28;20073;-88
2020/12/11 02:48:53;;;;;;;22.27;13.90;;;1.60;85.90;;;;;;5075906;28;20473;-88
2020/12/11 02:51:18;;;;;;;19.30;12.75;;;1.60;85.90;;;;;;5094190;28;20024;-87
2020/12/11 02:53:44;;;;;;;18.40;12.45;;;1.60;85.90;;;;;;5105473;28;20064;-87
2020/12/11 02:56:10;;;;;;;16.60;11.15;;;1.60;85.90;;;;;;5105051;28;20028;-87
2020/12/11 02:58:35;;;;;;;16.38;10.82;;;1.60;85.90;;;;;;5102871;28;20599;-87
2020/12/11 03:01:01;;;;;;;20.00;13.32;;;1.60;85.90;;;;;;5097568;28;20073;-87
2020/12/11 03:03:26;;;;;;;20.25;13.27;;;1.60;85.90;;;;;;5103711;28;20050;-87
2020/12/11 03:05:52;;;;;;;22.50;15.10;;;1.60;85.90;;;;;;5119683;28;20020;-87
2020/12/11 03:08:17;;;;;;;17.38;11.55;;;1.50;85.90;;;;;;5124878;27;20015;-87
2020/12/11 03:10:43;;;;;;;16.33;10.65;;;1.60;86.00;;;;;;5119297;27;20036;-87
2020/12/11 03:13:08;;;;;;;19.95;13.32;;;1.60;86.00;;;;;;5099343;28;20016;-87
2020/12/11 03:15:34;;;;;;;18.60;12.00;;;1.60;86.00;;;;;;5106512;28;20012;-87
2020/12/11 03:17:59;;;;;;;17.88;12.23;;;1.60;85.90;;;;;;5121244;27;20008;-88
2020/12/11 03:20:25;;;;;;;19.38;12.48;;;1.60;86.00;;;;;;5133867;27;20024;-88
2020/12/11 03:22:53;;;;;;;23.55;14.40;;;1.60;86.00;;;;;;5114014;28;20043;-88
2020/12/11 03:25:19;;;;;;;17.17;11.60;;;1.60;86.00;;;;;;5102092;28;20023;-88
2020/12/11 03:27:45;;;;;;;18.85;12.18;;;1.60;86.00;;;;;;5110719;28;20023;-88
2020/12/11 03:30:11;;;;;;;20.48;12.85;;;1.80;86.00;;;;;;5080046;28;20024;-88
2020/12/11 03:32:37;;;;;;;19.55;12.98;;;1.60;85.90;;;;;;5096926;28;20614;-87
2020/12/11 03:35:04;;;;;;;17.55;11.73;;;1.60;85.90;;;;;;5107520;28;20068;-87
2020/12/11 03:37:29;;;;;;;20.88;14.20;;;1.60;86.00;;;;;;5100022;28;20020;-87
2020/12/11 03:39:55;;;;;;;21.17;13.02;;;1.60;86.00;;;;;;5111640;28;20130;-88
2020/12/11 03:42:21;;;;;;;16.45;11.50;;;1.60;86.10;;;;;;5120661;28;20024;-88
2020/12/11 03:44:46;;;;;;;16.13;10.52;;;1.60;86.10;;;;;;5099844;28;20031;-88
2020/12/11 03:47:12;;;;;;;20.25;12.93;;;1.60;86.10;;;;;;5116902;28;20099;-89
2020/12/11 03:49:37;;;;;;;19.42;12.63;;;1.60;86.00;;;;;;5100967;28;20043;-88
2020/12/11 03:52:03;;;;;;;21.75;13.85;;;1.50;86.00;;;;;;5095730;28;20035;-88
2020/12/11 03:54:28;;;;;;;18.10;12.13;;;1.60;86.00;;;;;;5105094;28;20051;-88
2020/12/11 03:56:54;;;;;;;24.50;15.02;;;1.50;86.00;;;;;;5092819;28;20013;-87
2020/12/11 03:59:20;;;;;;;19.35;12.75;;;1.50;86.00;;;;;;5089362;28;20471;-87
2020/12/11 04:01:45;;;;;;;18.48;12.45;;;1.50;86.10;;;;;;5110332;28;20052;-86
2020/12/11 04:04:11;;;;;;;18.60;12.15;;;1.50;86.00;;;;;;5105518;28;20024;-87
2020/12/11 04:06:36;;;;;;;18.55;12.38;;;1.50;86.10;;;;;;5112936;28;20019;-88
2020/12/11 04:09:03;;;;;;;20.40;13.90;;;1.50;86.10;;;;;;5074009;28;20126;-87
2020/12/11 04:11:29;;;;;;;22.65;15.35;;;1.50;86.10;;;;;;5111075;28;20337;-88
2020/12/11 04:13:55;;;;;;;22.27;14.57;;;1.50;86.10;;;;;;5107294;28;20050;-86
2020/12/11 04:16:20;;;;;;;21.15;13.98;;;1.50;86.20;;;;;;5091258;28;20063;-87
2020/12/11 04:18:46;;;;;;;22.38;14.77;;;1.40;86.20;;;;;;5098176;28;20034;-87
2020/12/11 04:21:15;;;;;;;23.10;16.13;;;1.40;86.30;;;;;;5093232;28;20092;-87
2020/12/11 04:23:44;;;;;;;19.55;12.75;;;1.40;86.30;;;;;;5106723;28;20549;-87
2020/12/11 04:26:09;;;;;;;21.13;15.00;;;1.40;86.40;;;;;;5098073;28;20024;-87
2020/12/11 04:28:35;;;;;;;22.35;14.77;;;1.40;86.40;;;;;;5092978;28;20028;-87
2020/12/11 04:31:00;;;;;;;21.17;14.43;;;1.50;86.50;;;;;;5104827;28;20077;-87
2020/12/11 04:33:26;;;;;;;23.67;16.27;;;1.50;86.50;;;;;;5080956;28;20115;-87
2020/12/11 04:35:52;;;;;;;23.08;16.23;;;1.50;86.50;;;;;;5100088;28;20110;-87
2020/12/11 04:38:17;;;;;;;24.35;15.68;;;1.40;86.40;;;;;;5102694;28;20059;-87
2020/12/11 04:40:44;;;;;;;19.17;13.38;;;1.50;86.40;;;;;;5090617;28;20023;-86
2020/12/11 04:43:10;;;;;;;23.83;16.17;;;1.50;86.40;;;;;;5090725;28;20067;-87
2020/12/11 04:45:49;;;;;;;24.10;16.05;;;1.50;86.40;;;;;;5104156;28;20059;-87
2020/12/11 04:48:15;;;;;;;18.25;13.05;;;1.50;86.40;;;;;;5102073;28;20024;-85
2020/12/11 04:50:41;;;;;;;24.60;16.27;;;1.50;86.40;;;;;;5085676;28;20027;-86
2020/12/11 04:53:14;;;;;;;21.02;14.45;;;1.50;86.40;;;;;;5115218;28;20024;-87
2020/12/11 04:55:45;;;;;;;22.63;15.70;;;1.50;86.50;;;;;;5106097;28;20051;-87
2020/12/11 04:58:16;;;;;;;22.83;15.85;;;1.50;86.40;;;;;;5105687;28;20498;-88
2020/12/11 05:00:42;;;;;;;20.05;13.65;;;1.50;86.40;;;;;;5087846;28;20389;-86
2020/12/11 05:03:13;;;;;;;25.30;16.77;;;1.50;86.40;;;;;;5101531;28;20039;-87
2020/12/11 05:05:40;;;;;;;23.35;17.10;;;1.60;86.40;;;;;;5105600;28;20016;-88
2020/12/11 05:08:20;;;;;;;17.33;12.07;;;1.50;86.30;;;;;;5106184;28;20110;-86
2020/12/11 05:10:46;;;;;;;21.58;15.43;;;1.50;86.40;;;;;;5100735;28;20028;-87
2020/12/11 05:13:19;;;;;;;19.67;13.18;;;1.50;86.20;;;;;;5094473;28;20370;-88
2020/12/11 05:16:09;;;;;;;19.85;14.05;;;1.60;86.30;;;;;;5096657;28;20036;-87
2020/12/11 05:18:36;;;;;;;20.10;13.02;;;1.60;86.30;;;;;;5101126;28;20104;-88
2020/12/11 05:21:21;;;;;;;22.75;15.80;;;1.60;86.20;;;;;;5106287;28;20028;-88
2020/12/11 05:24:00;;;;;;;22.65;15.95;;;1.70;86.10;;;;;;5080174;28;20452;-88
2020/12/11 05:26:28;;;;;;;23.15;16.00;;;1.70;86.10;;;;;;5097692;28;20028;-89
2020/12/11 05:28:54;;;;;;;24.40;16.10;;;1.70;86.00;;;;;;5094286;28;20063;-89
2020/12/11 05:31:19;;;;;;;19.92;13.07;;;1.60;86.00;;;;;;5104334;28;20062;-89
2020/12/11 05:34:06;;;;;;;23.17;15.93;;;1.70;86.00;;;;;;5094346;28;20044;-88
2020/12/11 05:36:51;;;;;;;19.63;13.20;;;1.60;86.00;;;;;;5098903;28;20111;-88
2020/12/11 05:39:32;;;;;;;18.58;11.85;;;1.70;86.10;;;;;;5095813;28;20042;-89
2020/12/11 05:42:02;;;;;;;19.88;13.48;;;1.80;86.00;;;;;;5096496;28;20024;-88
2020/12/11 05:44:33;;;;;;;24.80;16.02;;;1.80;85.80;;;;;;5094139;28;20079;-88
2020/12/11 05:47:15;;;;;;;19.48;12.85;;;1.80;85.80;;;;;;5088260;28;20481;-88
2020/12/11 05:49:41;;;;;;;16.85;11.57;;;1.80;85.80;;;;;;5094638;28;20035;-87
2020/12/11 05:52:24;;;;;;;18.80;12.82;;;1.90;85.70;;;;;;5108000;28;20011;-88
2020/12/11 05:54:56;;;;;;;20.75;14.52;;;2.00;85.70;;;;;;5092629;28;20032;-87
2020/12/11 05:57:22;;;;;;;23.15;15.35;;;2.10;85.50;;;;;;5100224;28;20054;-88
2020/12/11 05:59:48;;;;;;;20.90;14.50;;;2.00;86.00;;;;;;5095211;28;20024;-87
2020/12/11 06:02:18;;;;;;;21.27;14.23;;;1.90;85.30;;;;;;5100156;28;20030;-87
2020/12/11 06:04:46;;;;;;;19.88;13.30;;;1.90;85.30;;;;;;5098334;28;20035;-88
2020/12/11 06:07:14;;;;;;;17.15;11.57;;;2.00;85.30;;;;;;5096506;28;20097;-88
2020/12/11 06:09:43;;;;;;;20.98;13.52;;;2.00;85.30;;;;;;5095335;28;20654;-87
2020/12/11 06:12:10;;;;;;;21.80;14.95;;;2.10;85.20;;;;;;5115618;28;20020;-88
2020/12/11 06:14:53;;;;;;;20.23;13.75;;;2.00;85.00;;;;;;5097660;28;20032;-89
2020/12/11 06:17:21;;;;;;;20.00;13.38;;;2.10;85.10;;;;;;5083215;28;20024;-88
2020/12/11 06:19:49;;;;;;;21.83;14.98;;;2.10;85.00;;;;;;5096015;28;20722;-89
2020/12/11 06:22:15;;;;;;;17.98;12.15;;;2.10;84.90;;;;;;5097133;28;20042;-87
2020/12/11 06:24:41;;;;;;;18.80;13.50;;;2.20;84.90;;;;;;5100948;28;20020;-88
2020/12/11 06:27:06;;;;;;;19.15;13.18;;;2.20;84.70;;;;;;5084960;28;20030;-88
2020/12/11 06:29:34;;;;;;;18.63;13.23;;;2.20;84.60;;;;;;5075032;28;20043;-88
2020/12/11 06:32:00;;;;;;;18.85;13.35;;;2.20;84.60;;;;;;5105043;28;20024;-87
2020/12/11 06:34:26;;;;;;;17.15;12.00;;;2.20;84.50;;;;;;5093675;28;20519;-88
2020/12/11 06:36:53;;;;;;;17.45;11.73;;;2.30;84.50;;;;;;5093318;28;20021;-87
2020/12/11 06:39:42;;;;;;;17.88;12.77;;;2.30;84.50;;;;;;5092869;28;20035;-87
2020/12/11 06:42:37;;;;;;;20.90;12.93;;;2.30;84.30;;;;;;5082866;28;20437;-87
2020/12/11 06:45:28;;;;;;;20.20;13.52;;;2.40;84.40;;;;;;5075017;28;20542;-91
2020/12/11 06:47:57;;;;;;;16.23;11.50;;;2.30;84.00;;;;;;5089687;28;20032;-87
2020/12/11 06:50:31;;;;;;;21.80;15.02;;;2.30;84.00;;;;;;5103751;28;20043;-86
2020/12/11 06:52:58;;;;;;;13.73;9.63;;;2.30;83.90;;;;;;5093741;28;20028;-87
2020/12/11 06:55:49;;;;;;;19.15;12.25;;;2.40;84.00;;;;;;5099614;28;20049;-86
2020/12/11 06:58:19;;;;;;;18.70;13.38;;;2.40;83.90;;;;;;5095301;28;20020;-86
2020/12/11 07:00:54;;;;;;;16.73;11.48;;;2.40;83.80;;;;;;5093391;28;20024;-85
2020/12/11 07:03:21;;;;;;;17.98;12.95;;;2.30;83.70;;;;;;5095384;28;20035;-87
2020/12/11 07:06:02;;;;;;;17.30;11.50;;;2.40;83.80;;;;;;5087885;28;20050;-87
2020/12/11 07:08:28;;;;;;;19.80;14.13;;;2.40;83.70;;;;;;5108604;28;20019;-87
2020/12/11 07:10:54;;;;;;;18.30;12.73;;;2.40;83.60;;;;;;5103613;28;20461;-87
2020/12/11 07:13:19;;;;;;;21.25;14.02;;;2.40;83.60;;;;;;5083346;28;20410;-86
2020/12/11 07:15:45;;;;;;;18.30;12.25;;;2.40;83.50;;;;;;5083015;28;20027;-86
2020/12/11 07:18:16;;;;;;;17.98;12.45;;;2.40;83.60;;;;;;5098180;28;20524;-86
2020/12/11 07:20:56;;;;;;;17.27;11.70;;;2.40;83.60;;;;;;5098992;28;20022;-87
2020/12/11 07:23:23;;;;;;;20.58;14.07;;;2.40;83.60;;;;;;5100572;28;20069;-87
2020/12/11 07:25:50;;;;;;;18.45;12.40;;;2.50;83.50;;;;;;5092960;28;20069;-86
2020/12/11 07:28:16;;;;;;;19.73;13.73;;;2.50;83.40;;;;;;5104993;28;20016;-87
2020/12/11 07:30:45;;;;;;;18.42;12.70;;;2.50;83.40;;;;;;5097192;28;20024;-89
2020/12/11 07:33:13;;;;;;;18.52;13.10;;;2.50;83.40;;;;;;5081370;28;20039;-89
2020/12/11 07:35:46;;;;;;;18.95;13.00;;;2.50;83.20;;;;;;5084924;28;20016;-88
2020/12/11 07:38:13;;;;;;;19.02;12.52;;;2.50;83.20;;;;;;5087315;28;20011;-90
2020/12/11 07:40:38;;;;;;;17.05;12.35;;;2.40;83.20;;;;;;5083549;28;20012;-87
2020/12/11 07:43:04;;;;;;;18.85;12.45;;;2.40;83.20;;;;;;5102483;28;20034;-85
2020/12/11 07:45:37;;;;;;;17.05;11.38;;;2.50;83.20;;;;;;5104619;28;20076;-88
2020/12/11 07:48:03;;;;;;;17.50;12.32;;;2.50;83.20;;;;;;5119187;28;20034;-88
2020/12/11 07:50:30;;;;;;;18.58;12.68;;;2.50;83.10;;;;;;5115648;27;20043;-89
2020/12/11 07:52:57;;;;;;;17.33;11.88;;;2.50;83.10;;;;;;5122793;27;20028;-87
2020/12/11 07:55:26;;;;;;;21.25;14.63;;;2.60;83.10;;;;;;5117854;27;20028;-90
2020/12/11 07:57:57;;;;;;;19.58;13.73;;;2.50;82.90;;;;;;5118252;27;20062;-89
2020/12/11 08:00:23;;;;;;;17.10;11.57;;;2.50;82.80;;;;;;5102211;28;20063;-89
2020/12/11 08:02:57;;;;;;;16.65;11.88;;;2.60;82.90;;;;;;5100074;28;20031;-88
2020/12/11 08:05:24;;;;;;;20.55;13.60;;;2.60;82.80;;;;;;5112895;28;20019;-90
2020/12/11 08:07:51;;;;;;;20.27;14.13;;;2.60;82.60;;;;;;5100259;28;20048;-89
2020/12/11 08:10:32;;;;;;;18.65;12.10;;;2.60;82.50;;;;;;5098881;28;20043;-90
2020/12/11 08:13:07;;;;;;;19.02;13.23;;;2.60;82.60;;;;;;5112716;28;20028;-90
2020/12/11 08:15:37;;;;;;;17.98;12.18;;;2.70;82.50;;;;;;5102729;28;20024;-89
2020/12/11 08:18:29;;;;;;;23.45;14.95;;;2.60;82.40;;;;;;5106653;28;20020;-89
2020/12/11 08:20:58;;;;;;;19.52;13.68;;;2.70;82.40;;;;;;5085737;28;20114;-90
2020/12/11 08:23:38;;;;;;;22.40;16.02;;;2.80;82.50;;;;;;5119599;28;20115;-91
2020/12/11 08:26:18;;;;;;;18.30;12.80;;;2.60;82.40;;;;;;5096412;28;20023;-87
2020/12/11 08:28:47;;;;;;;20.08;14.07;;;2.60;82.30;;;;;;5096228;28;20028;-87
2020/12/11 08:31:20;;;;;;;17.58;12.57;;;2.70;82.30;;;;;;5093566;28;20032;-91
2020/12/11 08:33:46;;;;;;;14.85;10.32;;;2.70;82.30;;;;;;5094845;28;20028;-89
2020/12/11 08:36:23;;;;;;;17.70;12.80;;;2.70;82.40;;;;;;5083461;28;20053;-90
2020/12/11 08:39:08;;;;;;;17.48;11.88;;;2.80;82.30;;;;;;5084236;28;20036;-90
2020/12/11 08:41:37;;;;;;;18.33;12.13;;;2.70;82.20;;;;;;5100634;28;20027;-87
2020/12/11 08:44:09;;;;;;;15.88;11.43;;;2.80;82.10;;;;;;5079888;28;20088;-90
2020/12/11 08:46:51;;;;;;;13.27;9.20;;;2.80;82.20;;;;;;5098542;28;20027;-88
2020/12/11 08:49:23;;;;;;;17.38;11.80;;;2.80;82.20;;;;;;5077754;28;20039;-89
2020/12/11 08:51:48;;;;;;;15.02;11.38;;;2.90;82.00;;;;;;5081033;28;20031;-88
2020/12/11 08:54:15;;;;;;;17.13;11.75;;;2.90;82.10;;;;;;5082918;28;20031;-90
2020/12/11 08:56:46;;;;;;;15.07;10.88;;;2.90;81.90;;;;;;5078901;28;20012;-88
2020/12/11 08:59:12;;;;;;;17.60;11.23;;;2.90;82.00;;;;;;5103819;28;20023;-89
2020/12/11 09:01:41;;;;;;;15.48;10.25;;;2.90;82.00;;;;;;5082964;28;20176;-87
2020/12/11 09:04:08;;;;;;;15.75;11.00;;;3.00;82.00;;;;;;5090432;28;20016;-89
2020/12/11 09:06:37;;;;;;;15.43;10.73;;;2.90;81.80;;;;;;5079806;28;20031;-92
2020/12/11 09:09:04;;;;;;;16.67;10.88;;;2.90;81.80;;;;;;5093327;28;20028;-92
2020/12/11 09:11:30;;;;;;;17.45;12.60;;;3.00;81.80;;;;;;5079079;28;20039;-91
2020/12/11 09:13:56;;;;;;;19.40;13.80;;;3.00;81.70;;;;;;5099592;28;20064;-91
2020/12/11 09:16:23;;;;;;;16.92;12.27;;;3.00;81.90;;;;;;5079810;28;20034;-89
2020/12/11 09:18:48;;;;;;;15.35;10.98;;;3.00;82.20;;;;;;5078144;28;20395;-91
2020/12/11 09:21:14;;;;;;;19.23;12.82;;;2.90;82.40;;;;;;5087557;28;20028;-91
2020/12/11 09:23:39;;;;;;;16.75;11.50;;;2.90;82.70;;;;;;5092007;28;20021;-89
2020/12/11 09:26:05;;;;;;;15.75;11.15;;;2.90;82.90;;;;;;5088681;28;20492;-89
2020/12/11 09:28:30;;;;;;;18.17;12.80;;;2.90;83.20;;;;;;5101307;28;20512;-89
2020/12/11 09:30:56;;;;;;;18.52;12.35;;;2.90;83.60;;;;;;5100456;28;20028;-89
2020/12/11 09:33:25;;;;;;;22.50;13.15;;;2.90;83.90;;;;;;5111755;28;20024;-90
2020/12/11 09:35:52;;;;;;;15.57;11.38;;;2.90;84.20;;;;;;5080418;28;20024;-89
2020/12/11 09:38:18;;;;;;;18.05;12.40;;;2.80;84.40;;;;;;5103865;28;20020;-90
2020/12/11 09:40:53;;;;;;;14.35;10.10;;;2.80;84.80;;;;;;5074766;28;20750;-90
2020/12/11 09:46:25;;;;;;;18.85;12.70;;;2.80;85.30;;;;;;5094509;28;20043;-90
2020/12/11 09:48:59;;;;;;;16.77;11.00;;;2.80;85.60;;;;;;5106061;28;20072;-88
2020/12/11 09:56:46;;;;;;;18.10;12.07;;;2.90;85.60;;;;;;5097127;28;20050;-89
2020/12/11 10:02:22;;;;;;;16.92;12.35;;;3.00;85.80;;;;;;5059008;28;20536;-87
2020/12/11 10:04:47;;;;;;;18.25;12.68;;;2.90;85.80;;;;;;5098926;28;20098;-89
2020/12/11 10:07:14;;;;;;;19.30;13.70;;;3.00;85.90;;;;;;5098446;28;20119;-89
2020/12/11 10:09:42;;;;;;;17.70;12.65;;;3.00;85.90;;;;;;5088080;28;20030;-89
2020/12/11 10:12:08;;;;;;;16.48;11.48;;;3.00;85.90;;;;;;5090017;28;20017;-88
2020/12/11 10:14:37;;;;;;;19.88;13.38;;;3.10;85.90;;;;;;5082877;28;20034;-90
2020/12/11 10:17:02;;;;;;;18.15;12.20;;;3.10;85.80;;;;;;5084916;28;20020;-90
2020/12/11 10:19:28;;;;;;;19.92;14.32;;;3.10;85.80;;;;;;5106808;28;20054;-89
2020/12/11 10:21:55;;;;;;;19.40;12.77;;;3.10;85.60;;;;;;5097449;28;20080;-88
2020/12/11 10:24:21;;;;;;;16.77;11.55;;;3.20;85.90;;;;;;5102658;28;20076;-89
2020/12/11 10:26:47;;;;;;;16.63;10.23;;;3.10;85.70;;;;;;5090502;28;20039;-90
2020/12/11 10:29:13;;;;;;;16.25;11.45;;;3.20;85.70;;;;;;5081125;28;20047;-91
2020/12/11 10:31:42;;;;;;;13.25;9.85;;;3.30;85.60;;;;;;5096266;28;20020;-92
2020/12/11 10:34:12;;;;;;;17.58;12.48;;;3.30;85.70;;;;;;5097001;28;20092;-90
2020/12/11 10:36:38;;;;;;;16.00;11.55;;;3.30;85.60;;;;;;5109498;28;20020;-88
2020/12/11 10:39:05;;;;;;;14.13;10.52;;;3.30;85.50;;;;;;5089322;28;20103;-89
2020/12/11 10:41:31;;;;;;;13.88;10.20;;;3.40;85.60;;;;;;5095891;28;20031;-87
2020/12/11 10:43:57;;;;;;;12.20;9.02;;;3.50;85.50;;;;;;5103293;28;20024;-92
2020/12/11 10:46:22;;;;;;;19.77;14.10;;;3.50;85.40;;;;;;5071885;28;20040;-92
2020/12/11 10:48:48;;;;;;;15.13;11.32;;;3.50;85.20;;;;;;5094216;28;20020;-89
2020/12/11 10:51:15;;;;;;;15.45;10.35;;;3.50;85.00;;;;;;5096926;28;20139;-89
2020/12/11 10:53:42;;;;;;;15.05;11.07;;;3.60;85.00;;;;;;5078050;28;20034;-91
2020/12/11 10:56:09;;;;;;;16.15;12.40;;;3.60;85.00;;;;;;5068325;28;20490;-88
2020/12/11 10:58:35;;;;;;;20.73;13.40;;;3.60;85.00;;;;;;5099355;28;20027;-87
2020/12/11 11:01:09;;;;;;;19.33;13.40;;;3.60;85.10;;;;;;5100294;28;20044;-87
2020/12/11 11:03:35;;;;;;;16.58;11.63;;;3.50;85.30;;;;;;5074862;28;20032;-86
2020/12/11 11:06:12;;;;;;;15.73;10.65;;;3.60;85.40;;;;;;5081315;28;20423;-90
2020/12/11 11:11:07;;;;;;;16.98;12.40;;;3.60;85.80;;;;;;5098989;28;20043;-87
2020/12/11 11:16:17;;;;;;;19.45;13.02;;;3.60;86.00;;;;;;5096097;28;20103;-88
2020/12/11 11:18:56;;;;;;;14.90;10.05;;;3.60;86.20;;;;;;5088521;28;20081;-88
2020/12/11 11:24:13;;;;;;;12.65;9.25;;;3.60;86.50;;;;;;5098940;28;20624;-88
2020/12/11 11:27:06;;;;;;;13.57;9.75;;;3.70;86.50;;;;;;5081322;28;20028;-89
2020/12/11 11:29:24;;;;;;;17.95;13.05;;;3.70;86.50;;;;;;5089931;28;20147;-88
2020/12/11 11:31:49;;;;;;;14.52;10.27;;;3.70;86.70;;;;;;5093301;28;20134;-88
2020/12/11 11:34:15;;;;;;;15.50;11.13;;;3.70;86.70;;;;;;5097762;28;20042;-88
2020/12/11 11:36:40;;;;;;;13.70;9.77;;;3.70;86.90;;;;;;5100325;28;20051;-88
2020/12/11 11:39:06;;;;;;;13.05;9.75;;;3.70;87.00;;;;;;5094369;28;20385;-89
2020/12/11 11:41:44;;;;;;;16.60;11.70;;;3.80;87.00;;;;;;5088728;28;20535;-88
2020/12/11 11:44:29;;;;;;;17.42;12.52;;;3.80;87.00;;;;;;5069668;28;20051;-88
2020/12/11 11:46:55;;;;;;;16.58;11.77;;;3.80;87.10;;;;;;5083495;28;20069;-88
2020/12/11 11:49:51;;;;;;;16.63;11.20;;;3.80;87.30;;;;;;5091245;28;20048;-86
2020/12/11 11:52:40;;;;;;;14.93;10.48;;;4.00;87.30;;;;;;5087360;28;20035;-88
2020/12/11 11:55:05;;;;;;;17.35;11.05;;;3.90;87.30;;;;;;5092609;28;20032;-88
2020/12/11 11:57:31;;;;;;;17.05;12.45;;;3.90;87.40;;;;;;5097202;28;20061;-87
2020/12/11 11:59:56;;;;;;;16.80;11.70;;;3.90;87.50;;;;;;5095543;28;20389;-88
2020/12/11 12:02:22;;;;;;;16.45;11.20;;;3.90;87.50;;;;;;5084797;28;20028;-88
2020/12/11 12:04:48;;;;;;;16.85;11.68;;;3.90;87.60;;;;;;5077901;28;20028;-87
2020/12/11 12:07:14;;;;;;;18.23;12.63;;;3.90;87.60;;;;;;5093712;28;20023;-87
2020/12/11 12:09:40;;;;;;;15.75;11.10;;;3.90;87.70;;;;;;5098945;28;20116;-86
2020/12/11 12:12:05;;;;;;;19.95;13.52;;;3.90;87.80;;;;;;5090556;28;20024;-88
2020/12/11 12:14:31;;;;;;;16.33;10.88;;;3.90;88.00;;;;;;5084819;28;20542;-87
2020/12/11 12:17:00;;;;;;;17.02;11.45;;;3.90;88.10;;;;;;5087863;28;20066;-88
2020/12/11 12:19:37;;;;;;;14.00;9.95;;;3.90;88.20;;;;;;5091507;28;20015;-88
2020/12/11 12:29:54;;;;;;;14.60;10.00;;;4.10;88.20;;;;;;5104113;28;20043;-87
2020/12/11 12:32:24;;;;;;;11.80;8.68;;;4.00;88.00;;;;;;5123518;27;20008;-86
2020/12/11 12:34:59;;;;;;;15.68;10.63;;;4.00;88.00;;;;;;5118236;27;20016;-89
2020/12/11 12:43:42;;;;;;;14.13;10.45;;;4.00;88.40;;;;;;5099666;28;20066;-85
2020/12/11 12:45:35;;;;;;;19.02;11.23;;;4.10;88.50;;;;;;5096082;28;20142;-86
2020/12/11 12:48:01;;;;;;;13.43;10.10;;;4.10;88.60;;;;;;5104333;28;20324;-87
2020/12/11 12:50:26;;;;;;;16.75;11.65;;;4.10;88.50;;;;;;5088521;28;20036;-86
2020/12/11 12:52:52;;;;;;;17.85;12.60;;;4.10;88.70;;;;;;5095645;28;20052;-87
2020/12/11 12:55:21;;;;;;;13.50;10.50;;;4.10;88.70;;;;;;5089482;28;20024;-88
2020/12/11 12:57:55;;;;;;;17.65;12.27;;;4.10;88.70;;;;;;5093256;28;20063;-87
2020/12/11 13:00:29;;;;;;;15.55;10.57;;;4.20;88.90;;;;;;5092497;28;20122;-87
2020/12/11 13:03:20;;;;;;;13.77;9.55;;;4.10;88.80;;;;;;5077546;28;20032;-87
2020/12/11 13:05:43;;;;;;;12.00;8.25;;;4.20;88.80;;;;;;5097164;28;20042;-87
2020/12/11 13:08:08;;;;;;;12.52;8.85;;;4.30;88.70;;;;;;5099145;28;20122;-86
2020/12/11 13:10:34;;;;;;;14.32;10.30;;;4.30;88.60;;;;;;5098630;28;20020;-88
2020/12/11 13:13:06;;;;;;;11.30;8.07;;;4.30;88.60;;;;;;5098631;28;20024;-86
2020/12/11 13:15:32;;;;;;;15.65;11.60;;;4.30;88.60;;;;;;5095454;28;20032;-86
2020/12/11 13:17:58;;;;;;;15.00;10.63;;;4.30;88.70;;;;;;5092578;28;20024;-90